createdAt,value
2023-02-21T00:01:14.955Z,11.20
2023-02-21T00:06:36.174Z,11.20
2023-02-21T00:12:00.312Z,11.20
2023-02-21T00:17:22.731Z,11.20
2023-02-21T00:22:43.860Z,11.20
2023-02-21T00:28:04.987Z,11.20
2023-02-21T00:33:27.151Z,11.20
2023-02-21T00:38:50.628Z,11.20
2023-02-21T00:44:11.540Z,11.10
2023-02-21T00:49:34.085Z,11.20
2023-02-21T00:54:55.293Z,11.10
2023-02-21T01:00:16.209Z,11.10
2023-02-21T01:05:38.661Z,11.10
2023-02-21T01:10:59.686Z,11.10
2023-02-21T01:16:20.683Z,11.10
2023-02-21T01:21:42.843Z,11.00
2023-02-21T01:27:04.048Z,11.00
2023-02-21T01:32:24.883Z,11.00
2023-02-21T01:37:47.344Z,11.00
2023-02-21T01:43:08.934Z,10.90
2023-02-21T01:48:34.691Z,10.80
2023-02-21T01:53:56.735Z,10.90
2023-02-21T01:59:20.375Z,10.80
2023-02-21T02:04:41.289Z,10.80
2023-02-21T02:10:03.570Z,10.70
2023-02-21T02:15:35.214Z,10.70
2023-02-21T02:21:04.372Z,10.60
2023-02-21T02:26:43.236Z,10.60
2023-02-21T02:32:02.373Z,10.60
2023-02-21T02:37:14.388Z,10.60
2023-02-21T02:42:25.267Z,10.60
2023-02-21T02:47:36.351Z,10.60
2023-02-21T02:52:51.706Z,10.70
2023-02-21T02:57:55.871Z,10.60
2023-02-21T03:03:16.609Z,10.60
2023-02-21T03:08:28.726Z,10.60
2023-02-21T03:13:39.243Z,10.60
2023-02-21T03:18:47.260Z,10.60
2023-02-21T03:23:56.020Z,10.70
2023-02-21T03:29:00.105Z,10.70
2023-02-21T03:34:03.552Z,10.70
2023-02-21T03:39:08.409Z,10.70
2023-02-21T03:44:12.296Z,10.70
2023-02-21T03:49:15.755Z,10.70
2023-02-21T03:54:20.588Z,10.80
2023-02-21T03:59:24.097Z,10.80
2023-02-21T04:04:27.863Z,10.80
2023-02-21T04:09:32.633Z,10.80
2023-02-21T04:14:36.054Z,10.80
2023-02-21T04:19:39.597Z,10.80
2023-02-21T04:24:44.734Z,10.80
2023-02-21T04:29:48.160Z,10.90
2023-02-21T04:34:51.547Z,10.90
2023-02-21T04:39:56.364Z,10.90
2023-02-21T04:45:01.002Z,10.90
2023-02-21T04:50:04.568Z,10.90
2023-02-21T04:55:09.905Z,10.90
2023-02-21T05:00:14.485Z,10.90
2023-02-21T05:05:18.114Z,10.80
2023-02-21T05:10:25.451Z,10.70
2023-02-21T05:15:30.489Z,10.60
2023-02-21T05:20:33.929Z,10.50
2023-02-21T05:25:38.851Z,10.60
2023-02-21T05:30:42.824Z,10.60
2023-02-21T05:35:47.905Z,10.50
2023-02-21T05:40:53.381Z,10.50
2023-02-21T05:45:57.552Z,10.50
2023-02-21T05:51:01.053Z,10.50
2023-02-21T05:56:06.240Z,10.50
2023-02-21T06:01:09.762Z,10.70
2023-02-21T06:06:15.629Z,10.70
2023-02-21T06:11:27.130Z,10.60
2023-02-21T06:16:35.091Z,10.60
2023-02-21T06:21:38.605Z,10.70
2023-02-21T06:26:43.438Z,10.60
2023-02-21T06:31:47.145Z,10.50
2023-02-21T06:36:53.517Z,10.50
2023-02-21T06:41:58.328Z,10.40
2023-02-21T06:47:02.310Z,10.40
2023-02-21T06:52:06.371Z,10.40
2023-02-21T06:57:11.140Z,10.30
2023-02-21T07:02:19.246Z,10.40
2023-02-21T07:07:22.816Z,10.50
2023-02-21T07:12:28.119Z,10.50
2023-02-21T07:17:31.782Z,10.60
2023-02-21T07:22:35.201Z,10.60
2023-02-21T07:27:40.311Z,10.70
2023-02-21T07:37:47.532Z,10.80
2023-02-21T07:42:52.767Z,10.90
2023-02-21T07:47:56.715Z,11.00
2023-02-21T07:53:01.965Z,11.00
2023-02-21T07:58:06.718Z,11.00
2023-02-21T08:03:13.317Z,10.90
2023-02-21T08:08:17.401Z,10.90
2023-02-21T08:13:22.210Z,11.00
2023-02-21T08:18:26.773Z,11.10
2023-02-21T08:23:30.219Z,11.10
2023-02-21T08:28:35.021Z,11.20
2023-02-21T08:33:38.484Z,11.20
2023-02-21T08:38:42.232Z,11.20
2023-02-21T08:43:48.153Z,11.30
2023-02-21T08:48:51.541Z,11.20
2023-02-21T08:53:55.187Z,11.30
2023-02-21T08:59:00.160Z,11.30
2023-02-21T09:04:04.720Z,11.20
2023-02-21T09:09:08.173Z,11.30
2023-02-21T09:14:13.149Z,11.40
2023-02-21T09:19:16.809Z,11.40
2023-02-21T09:24:25.231Z,11.40
2023-02-21T09:29:44.851Z,11.40
2023-02-21T09:34:49.544Z,11.40
2023-02-21T09:39:53.025Z,11.40
2023-02-21T09:44:58.429Z,11.40
2023-02-21T09:50:06.528Z,11.50
2023-02-21T09:55:16.182Z,11.50
2023-02-21T10:00:23.468Z,11.60
2023-02-21T10:05:40.800Z,11.70
2023-02-21T10:10:47.588Z,11.70
2023-02-21T10:15:57.685Z,11.80
2023-02-21T10:21:05.619Z,11.80
2023-02-21T10:26:12.886Z,11.80
2023-02-21T10:31:21.581Z,11.90
2023-02-21T10:36:25.480Z,11.90
2023-02-21T10:41:32.082Z,12.00
2023-02-21T10:46:41.137Z,11.90
2023-02-21T10:51:44.991Z,11.90
2023-02-21T10:56:49.780Z,11.90
2023-02-21T11:01:55.472Z,11.70
2023-02-21T11:07:01.569Z,11.70
2023-02-21T11:12:08.460Z,11.70
2023-02-21T11:17:20.002Z,11.70
2023-02-21T11:22:26.137Z,11.80
2023-02-21T11:27:32.615Z,11.80
2023-02-21T11:32:39.999Z,11.80
2023-02-21T11:37:52.761Z,11.90
2023-02-21T11:43:19.099Z,12.10
2023-02-21T11:48:31.131Z,12.20
2023-02-21T11:53:42.242Z,12.10
2023-02-21T11:58:53.157Z,12.10
2023-02-21T12:04:19.686Z,12.20
2023-02-21T12:09:32.129Z,12.30
2023-02-21T12:14:56.994Z,12.30
2023-02-21T12:20:19.688Z,12.40
2023-02-21T12:25:31.081Z,12.40
2023-02-21T12:30:55.780Z,12.60
2023-02-21T12:36:36.594Z,12.70
2023-02-21T12:41:59.139Z,12.80
2023-02-21T12:47:06.877Z,12.80
2023-02-21T12:52:17.980Z,12.80
2023-02-21T12:57:28.075Z,12.70
2023-02-21T13:02:40.431Z,12.70
2023-02-21T13:07:51.325Z,12.70
2023-02-21T13:13:00.132Z,12.60
2023-02-21T13:18:11.059Z,12.60
2023-02-21T13:23:36.608Z,12.50
2023-02-21T13:28:41.657Z,12.60
2023-02-21T13:33:49.623Z,12.60
2023-02-21T13:39:12.940Z,12.70
2023-02-21T13:44:24.152Z,12.70
2023-02-21T13:49:48.245Z,12.90
2023-02-21T13:55:27.480Z,13.30
2023-02-21T14:00:51.703Z,13.50
2023-02-21T14:06:33.244Z,13.40
2023-02-21T14:11:41.084Z,13.40
2023-02-21T14:16:49.979Z,13.50
2023-02-21T14:22:02.829Z,13.70
2023-02-21T14:27:38.760Z,13.70
2023-02-21T14:32:45.279Z,13.70
2023-02-21T14:37:55.864Z,13.70
2023-02-21T14:43:30.674Z,13.60
2023-02-21T14:49:03.732Z,13.50
2023-02-21T14:54:27.086Z,13.40
2023-02-21T15:00:12.165Z,13.30
2023-02-21T15:05:18.813Z,13.20
2023-02-21T15:10:42.763Z,13.00
2023-02-21T15:15:46.389Z,12.80
2023-02-21T15:21:04.585Z,12.60
2023-02-21T15:26:19.789Z,12.60
2023-02-21T15:31:23.276Z,12.70
2023-02-21T15:36:27.321Z,12.50
2023-02-21T15:41:34.444Z,12.50
2023-02-21T15:46:44.482Z,12.40
2023-02-21T15:51:50.407Z,12.40
2023-02-21T15:57:19.862Z,12.30
2023-02-21T16:02:26.247Z,12.20
2023-02-21T16:07:35.406Z,12.20
2023-02-21T16:12:43.622Z,12.10
2023-02-21T16:17:53.174Z,12.10
2023-02-21T16:23:23.379Z,12.00
2023-02-21T16:28:28.851Z,12.00
2023-02-21T16:33:33.055Z,11.90
2023-02-21T16:38:36.672Z,11.90
2023-02-21T16:43:41.445Z,11.70
2023-02-21T16:48:44.864Z,11.70
2023-02-21T16:53:48.934Z,11.60
2023-02-21T16:58:56.811Z,11.60
2023-02-21T17:04:01.589Z,11.50
2023-02-21T17:09:05.137Z,11.40
2023-02-21T17:14:10.163Z,11.40
2023-02-21T17:19:15.021Z,11.30
2023-02-21T17:24:19.243Z,11.20
2023-02-21T17:29:25.533Z,11.20
2023-02-21T17:34:29.006Z,11.20
2023-02-21T17:39:32.451Z,11.20
2023-02-21T17:44:37.917Z,11.20
2023-02-21T17:49:41.639Z,11.20
2023-02-21T17:54:45.371Z,11.20
2023-02-21T17:59:50.591Z,11.20
2023-02-21T18:04:54.061Z,11.20
2023-02-21T18:09:58.149Z,11.20
2023-02-21T18:15:02.951Z,11.10
2023-02-21T18:20:09.408Z,11.00
2023-02-21T18:25:14.390Z,11.00
2023-02-21T18:30:20.086Z,11.00
2023-02-21T18:35:23.563Z,11.00
2023-02-21T18:40:34.417Z,10.90
2023-02-21T18:45:40.578Z,10.80
2023-02-21T18:50:44.631Z,10.80
2023-02-21T18:55:48.114Z,10.80
2023-02-21T19:00:53.059Z,10.80
2023-02-21T19:05:56.579Z,10.80
2023-02-21T19:11:00.208Z,10.80
2023-02-21T19:16:05.754Z,10.70
2023-02-21T19:21:12.405Z,10.70
2023-02-21T19:26:15.987Z,10.70
2023-02-21T19:31:21.708Z,10.60
2023-02-21T19:36:25.381Z,10.70
2023-02-21T19:41:28.859Z,10.70
2023-02-21T19:46:34.006Z,10.70
2023-02-21T19:51:37.479Z,10.70
2023-02-21T19:56:40.928Z,10.60
2023-02-21T20:01:46.043Z,10.50
2023-02-21T20:06:50.390Z,10.40
2023-02-21T20:11:54.218Z,10.40
2023-02-21T20:16:59.010Z,10.40
2023-02-21T20:22:02.762Z,10.40
2023-02-21T20:27:06.229Z,10.40
2023-02-21T20:32:11.167Z,10.40
2023-02-21T20:37:16.923Z,10.40
2023-02-21T20:42:22.771Z,10.40
2023-02-21T20:47:29.158Z,10.40
2023-02-21T20:52:32.694Z,10.40
2023-02-21T20:57:36.941Z,10.40
2023-02-21T21:02:41.798Z,10.50
2023-02-21T21:07:45.909Z,10.50
2023-02-21T21:12:51.885Z,10.40
2023-02-21T21:17:56.922Z,10.40
2023-02-21T21:23:00.467Z,10.50
2023-02-21T21:28:05.668Z,10.30
2023-02-21T21:33:10.491Z,10.30
2023-02-21T21:38:15.994Z,10.30
2023-02-21T21:43:19.671Z,10.30
2023-02-21T21:48:24.878Z,10.20
2023-02-21T21:53:28.330Z,10.00
2023-02-21T21:58:33.781Z,10.00
2023-02-21T22:03:38.595Z,9.90
2023-02-21T22:08:42.041Z,9.90
2023-02-21T22:13:46.913Z,9.90
2023-02-21T22:18:52.659Z,9.80
2023-02-21T22:23:57.958Z,9.80
2023-02-21T22:29:05.996Z,9.70
2023-02-21T22:34:11.060Z,9.70
2023-02-21T22:39:15.012Z,9.60
2023-02-21T22:44:19.785Z,9.50
2023-02-21T22:49:24.874Z,9.50
2023-02-21T22:54:31.568Z,9.50
2023-02-21T22:59:37.776Z,9.40
2023-02-21T23:04:42.576Z,9.40
2023-02-21T23:09:48.547Z,9.40
2023-02-21T23:14:52.176Z,9.40
2023-02-21T23:19:56.942Z,9.40
2023-02-21T23:25:00.352Z,9.50
2023-02-21T23:30:03.762Z,9.40
2023-02-21T23:35:09.027Z,9.40
2023-02-21T23:42:55.988Z,9.40
2023-02-21T23:47:59.548Z,9.40
2023-02-21T23:53:03.441Z,9.40
2023-02-21T23:58:10.636Z,9.30
